createdAt,value
2023-03-06T00:00:38.896Z,100960.09
2023-03-06T00:03:06.324Z,100959.22
2023-03-06T00:05:32.923Z,100958.28
2023-03-06T00:07:59.825Z,100959.78
2023-03-06T00:10:30.665Z,100959.56
2023-03-06T00:13:02.907Z,100950.94
2023-03-06T00:15:29.671Z,100949.00
2023-03-06T00:17:57.730Z,100952.78
2023-03-06T00:20:25.661Z,100902.66
2023-03-06T00:22:52.309Z,100927.34
2023-03-06T00:25:21.199Z,100941.28
2023-03-06T00:27:48.589Z,100942.44
2023-03-06T00:30:19.863Z,100909.34
2023-03-06T00:32:46.704Z,100915.81
2023-03-06T00:35:14.052Z,100923.38
2023-03-06T00:37:40.914Z,100930.63
2023-03-06T00:40:15.103Z,100921.88
2023-03-06T00:42:41.703Z,100899.56
2023-03-06T00:45:09.176Z,100911.69
2023-03-06T00:47:35.800Z,100914.78
2023-03-06T00:50:02.445Z,100910.66
2023-03-06T00:52:28.987Z,100919.50
2023-03-06T00:54:55.889Z,100882.50
2023-03-06T00:57:24.862Z,100910.97
2023-03-06T00:59:51.504Z,100908.66
2023-03-06T01:02:20.399Z,100907.91
2023-03-06T01:04:47.142Z,100913.47
2023-03-06T01:07:13.758Z,100878.00
2023-03-06T01:09:40.425Z,100903.19
2023-03-06T01:12:09.920Z,100898.94
2023-03-06T01:14:36.597Z,100893.09
2023-03-06T01:17:07.954Z,100869.28
2023-03-06T01:19:34.537Z,100901.44
2023-03-06T01:22:01.175Z,100900.78
2023-03-06T01:24:28.576Z,100875.59
2023-03-06T01:26:55.190Z,100892.91
2023-03-06T01:29:21.754Z,100859.34
2023-03-06T01:31:48.398Z,100893.41
2023-03-06T01:34:14.991Z,100888.31
2023-03-06T01:36:41.593Z,100842.81
2023-03-06T01:39:08.199Z,100878.19
2023-03-06T01:41:34.802Z,100859.63
2023-03-06T01:44:02.373Z,100874.06
2023-03-06T01:46:28.922Z,100876.88
2023-03-06T01:49:16.813Z,100848.19
2023-03-06T01:52:11.830Z,100870.78
2023-03-06T01:54:47.128Z,100859.16
2023-03-06T01:57:19.176Z,100842.91
2023-03-06T01:59:51.589Z,100851.38
2023-03-06T02:02:18.265Z,100831.75
2023-03-06T02:04:46.253Z,100857.03
2023-03-06T02:07:15.642Z,100847.53
2023-03-06T02:09:47.037Z,100814.66
2023-03-06T02:12:20.825Z,100850.03
2023-03-06T02:14:48.149Z,100852.72
2023-03-06T02:17:18.279Z,100845.50
2023-03-06T02:19:55.974Z,100834.66
2023-03-06T02:22:25.489Z,100807.25
2023-03-06T02:25:00.836Z,100833.13
2023-03-06T02:27:27.937Z,100821.75
2023-03-06T02:29:54.751Z,100826.00
2023-03-06T02:32:21.350Z,100830.63
2023-03-06T02:34:51.043Z,100836.94
2023-03-06T02:37:18.163Z,100837.13
2023-03-06T02:39:49.855Z,100820.41
2023-03-06T02:42:22.274Z,100815.59
2023-03-06T02:44:51.214Z,100834.53
2023-03-06T02:47:20.656Z,100808.50
2023-03-06T02:49:47.269Z,100826.75
2023-03-06T02:52:13.857Z,100831.19
2023-03-06T02:54:42.642Z,100812.13
2023-03-06T02:57:09.287Z,100819.13
2023-03-06T02:59:36.099Z,100816.56
2023-03-06T03:02:02.707Z,100815.41
2023-03-06T03:04:31.593Z,100808.28
2023-03-06T03:06:58.163Z,100768.50
2023-03-06T03:09:28.385Z,100678.97
2023-03-06T03:11:54.996Z,100785.44
2023-03-06T03:14:21.540Z,100797.34
2023-03-06T03:16:48.212Z,100790.25
2023-03-06T03:19:14.831Z,100778.50
2023-03-06T03:21:41.699Z,100775.16
2023-03-06T03:24:08.649Z,100735.25
2023-03-06T03:26:35.157Z,100775.16
2023-03-06T03:29:04.226Z,100769.19
2023-03-06T03:31:31.701Z,100732.56
2023-03-06T03:33:58.473Z,100753.53
2023-03-06T03:36:26.109Z,100755.44
2023-03-06T03:38:52.667Z,100753.91
2023-03-06T03:41:19.237Z,100750.06
2023-03-06T03:43:45.783Z,100735.16
2023-03-06T03:46:12.432Z,100752.47
2023-03-06T03:48:41.447Z,100710.84
2023-03-06T03:51:13.216Z,100718.72
2023-03-06T03:53:40.082Z,100742.84
2023-03-06T03:56:06.908Z,100724.63
2023-03-06T03:58:38.335Z,100739.03
2023-03-06T04:01:08.241Z,100738.28
2023-03-06T04:03:34.995Z,100745.34
2023-03-06T04:06:02.103Z,100737.19
2023-03-06T04:08:29.014Z,100733.56
2023-03-06T04:10:56.090Z,100738.94
2023-03-06T04:13:25.220Z,100657.84
2023-03-06T04:15:55.820Z,100729.69
2023-03-06T04:18:23.280Z,100725.09
2023-03-06T04:20:50.065Z,100725.88
2023-03-06T04:23:19.594Z,100725.69
2023-03-06T04:25:46.750Z,100726.72
2023-03-06T04:28:14.090Z,100727.38
2023-03-06T04:30:43.116Z,100729.97
2023-03-06T04:33:14.520Z,100725.50
2023-03-06T04:35:43.372Z,100602.56
2023-03-06T04:38:12.504Z,100727.38
2023-03-06T04:40:39.107Z,100702.41
2023-03-06T04:43:06.215Z,100698.06
2023-03-06T04:45:33.706Z,100695.28
2023-03-06T04:48:03.119Z,100678.97
2023-03-06T04:50:32.580Z,100705.47
2023-03-06T04:53:04.819Z,100697.22
2023-03-06T04:55:31.846Z,100703.63
2023-03-06T04:58:00.670Z,100699.81
2023-03-06T05:00:30.673Z,100704.13
2023-03-06T05:03:02.518Z,100706.03
2023-03-06T05:05:30.007Z,100664.19
2023-03-06T05:07:57.524Z,100696.81
2023-03-06T05:10:24.138Z,100683.75
2023-03-06T05:12:50.837Z,100688.56
2023-03-06T05:15:17.911Z,100691.25
2023-03-06T05:17:46.115Z,100696.34
2023-03-06T05:20:16.825Z,100668.97
2023-03-06T05:22:43.607Z,100682.78
2023-03-06T05:25:11.248Z,100685.38
2023-03-06T05:27:41.102Z,100650.97
2023-03-06T05:30:14.060Z,100440.50
2023-03-06T05:32:43.415Z,100671.78
2023-03-06T05:35:17.148Z,100674.09
2023-03-06T05:37:46.284Z,100657.09
2023-03-06T05:40:14.081Z,100665.81
2023-03-06T05:42:40.781Z,100653.63
2023-03-06T05:45:08.383Z,100667.34
2023-03-06T05:47:35.032Z,100646.50
2023-03-06T05:50:01.735Z,100675.22
2023-03-06T05:52:28.428Z,100665.22
2023-03-06T05:54:55.345Z,100663.47
2023-03-06T05:57:23.597Z,100665.22
2023-03-06T05:59:50.784Z,100663.47
2023-03-06T06:02:18.374Z,100609.75
2023-03-06T06:04:45.794Z,100664.13
2023-03-06T06:07:16.533Z,100666.63
2023-03-06T06:09:48.008Z,100658.00
2023-03-06T06:12:14.669Z,100629.31
2023-03-06T06:14:41.380Z,100665.56
2023-03-06T06:17:08.098Z,100555.03
2023-03-06T06:19:34.704Z,100663.53
2023-03-06T06:22:02.804Z,100663.63
2023-03-06T06:24:30.342Z,100644.31
2023-03-06T06:26:58.186Z,100662.28
2023-03-06T06:29:26.148Z,100662.16
2023-03-06T06:31:53.380Z,100672.94
2023-03-06T06:34:20.555Z,100665.50
2023-03-06T06:36:47.866Z,100582.41
2023-03-06T06:39:19.403Z,100656.59
2023-03-06T06:42:02.721Z,100663.56
2023-03-06T06:44:32.537Z,100660.69
2023-03-06T06:49:50.592Z,100647.50
2023-03-06T06:52:18.773Z,100667.25
2023-03-06T06:54:45.988Z,100664.16
2023-03-06T06:57:17.716Z,100656.97
2023-03-06T06:59:44.451Z,100671.72
2023-03-06T07:02:13.775Z,100641.19
2023-03-06T07:04:52.379Z,100625.66
2023-03-06T07:07:25.446Z,100657.72
2023-03-06T07:09:52.780Z,100655.56
2023-03-06T07:12:19.631Z,100668.94
2023-03-06T07:14:48.967Z,100662.03
2023-03-06T07:17:18.414Z,100680.47
2023-03-06T07:19:50.181Z,100671.66
2023-03-06T07:22:19.073Z,100583.72
2023-03-06T07:24:48.099Z,100685.47
2023-03-06T07:27:14.690Z,100682.66
2023-03-06T07:29:43.168Z,100672.94
2023-03-06T07:32:11.632Z,100688.28
2023-03-06T07:34:38.240Z,100652.38
2023-03-06T07:37:04.986Z,100674.59
2023-03-06T07:39:34.078Z,100653.13
2023-03-06T07:42:01.081Z,100683.31
2023-03-06T07:44:30.161Z,100675.97
2023-03-06T07:46:57.145Z,100677.72
2023-03-06T07:49:23.776Z,100645.34
2023-03-06T07:51:50.374Z,100685.91
2023-03-06T07:54:16.953Z,100631.03
2023-03-06T07:56:47.167Z,100671.00
2023-03-06T07:59:33.178Z,100678.97
2023-03-06T08:02:03.936Z,100678.34
2023-03-06T08:04:31.722Z,100678.00
2023-03-06T08:07:01.903Z,100676.66
2023-03-06T08:09:29.965Z,100672.94
2023-03-06T08:11:59.956Z,100666.28
2023-03-06T08:14:26.789Z,100591.81
2023-03-06T08:16:56.340Z,100664.28
2023-03-06T08:19:23.082Z,100667.03
2023-03-06T08:21:49.636Z,100682.59
2023-03-06T08:24:16.775Z,100659.84
2023-03-06T08:26:45.722Z,100669.25
2023-03-06T08:29:12.771Z,100679.75
2023-03-06T08:31:46.969Z,100685.53
2023-03-06T08:34:17.460Z,100675.97
2023-03-06T08:36:46.494Z,100682.63
2023-03-06T08:39:14.211Z,100657.16
2023-03-06T08:41:42.268Z,100655.19
2023-03-06T08:44:09.449Z,100683.34
2023-03-06T08:46:36.347Z,100675.88
2023-03-06T08:49:03.471Z,100650.53
2023-03-06T08:51:30.059Z,100677.28
2023-03-06T08:53:57.907Z,100680.19
2023-03-06T08:56:34.466Z,100685.63
2023-03-06T08:59:02.760Z,100684.78
2023-03-06T09:01:32.338Z,100679.47
2023-03-06T09:04:01.736Z,100681.28
2023-03-06T09:06:33.525Z,100671.59
2023-03-06T09:09:00.373Z,100655.34
2023-03-06T09:11:27.856Z,100626.91
2023-03-06T09:13:55.416Z,100683.16
2023-03-06T09:16:22.102Z,100681.56
2023-03-06T09:18:50.915Z,100675.16
2023-03-06T09:21:17.588Z,100687.75
2023-03-06T09:23:44.425Z,100679.97
2023-03-06T09:26:12.337Z,100668.13
2023-03-06T09:28:40.299Z,100686.34
2023-03-06T09:31:12.409Z,100683.50
2023-03-06T09:33:39.428Z,100593.94
2023-03-06T09:36:08.148Z,100668.41
2023-03-06T09:38:34.999Z,100681.78
2023-03-06T09:41:22.912Z,100680.34
2023-03-06T09:44:01.475Z,100655.34
2023-03-06T09:46:31.272Z,100660.50
2023-03-06T09:49:31.929Z,100674.56
2023-03-06T09:52:10.625Z,100683.47
2023-03-06T09:54:46.417Z,100673.06
2023-03-06T09:57:26.487Z,100649.22
2023-03-06T10:00:04.533Z,100616.94
2023-03-06T10:02:44.801Z,100660.13
2023-03-06T10:05:41.104Z,100670.91
2023-03-06T10:08:27.162Z,100669.09
2023-03-06T10:11:03.713Z,100673.97
2023-03-06T10:13:35.443Z,100665.31
2023-03-06T10:16:22.273Z,100661.50
2023-03-06T10:18:49.318Z,100664.75
2023-03-06T10:21:43.672Z,100661.81
2023-03-06T10:24:47.995Z,100673.44
2023-03-06T10:27:43.120Z,100660.91
2023-03-06T10:30:33.786Z,100669.81
2023-03-06T10:33:06.180Z,100669.69
2023-03-06T10:35:45.666Z,100667.94
2023-03-06T10:38:29.949Z,100672.03
2023-03-06T10:41:08.060Z,100670.97
2023-03-06T10:43:36.617Z,100674.91
2023-03-06T10:46:06.683Z,100658.28
2023-03-06T10:48:40.045Z,100581.63
2023-03-06T10:51:18.818Z,100671.66
2023-03-06T10:54:22.248Z,100660.19
2023-03-06T10:56:48.843Z,100672.75
2023-03-06T10:59:20.142Z,100669.28
2023-03-06T11:01:51.522Z,100671.94
2023-03-06T11:04:24.263Z,100671.88
2023-03-06T11:07:18.087Z,100668.44
2023-03-06T11:09:56.949Z,100666.38
2023-03-06T11:12:32.341Z,100672.19
2023-03-06T11:15:14.298Z,100664.47
2023-03-06T11:17:53.427Z,100656.22
2023-03-06T11:20:20.250Z,100661.97
2023-03-06T11:22:52.210Z,100668.28
2023-03-06T11:25:22.110Z,100614.16
2023-03-06T11:27:57.841Z,100663.34
2023-03-06T11:30:35.443Z,100636.75
2023-03-06T11:33:15.332Z,100649.69
2023-03-06T11:36:40.616Z,100638.13
2023-03-06T11:39:36.758Z,100645.34
2023-03-06T11:42:26.575Z,100632.06
2023-03-06T11:45:05.080Z,100632.88
2023-03-06T11:47:38.113Z,100634.56
2023-03-06T11:50:07.631Z,100631.69
2023-03-06T11:52:49.269Z,100628.41
2023-03-06T11:55:24.052Z,100626.00
2023-03-06T11:58:04.082Z,100600.03
2023-03-06T12:00:54.061Z,100611.75
2023-03-06T12:03:41.179Z,100608.88
2023-03-06T12:06:15.712Z,100580.81
2023-03-06T12:09:11.821Z,100593.50
2023-03-06T12:11:50.279Z,100603.56
2023-03-06T12:14:40.410Z,100590.00
2023-03-06T12:17:39.004Z,100594.72
2023-03-06T12:20:33.220Z,100603.72
2023-03-06T12:23:16.650Z,100568.06
2023-03-06T12:25:49.673Z,100577.78
2023-03-06T12:28:19.380Z,100595.41
2023-03-06T12:31:19.581Z,100527.25
2023-03-06T12:33:56.528Z,100597.09
2023-03-06T12:36:47.769Z,100593.06
2023-03-06T12:39:45.269Z,100589.91
2023-03-06T12:42:42.442Z,100584.94
2023-03-06T12:45:33.739Z,100574.78
2023-03-06T12:48:02.092Z,100544.59
2023-03-06T12:50:33.005Z,100568.81
2023-03-06T12:53:16.274Z,100566.09
2023-03-06T12:55:46.546Z,100555.50
2023-03-06T12:58:28.997Z,100555.06
2023-03-06T13:01:05.883Z,100546.16
2023-03-06T13:04:14.616Z,100549.69
2023-03-06T13:07:02.060Z,100544.53
2023-03-06T13:09:37.450Z,100533.50
2023-03-06T13:12:06.218Z,100538.81
2023-03-06T13:14:42.274Z,100535.78
2023-03-06T13:17:24.069Z,100527.91
2023-03-06T13:20:13.858Z,100537.69
2023-03-06T13:22:44.358Z,100524.69
2023-03-06T13:25:17.432Z,100530.00
2023-03-06T13:27:53.225Z,100524.16
2023-03-06T13:30:21.544Z,100265.44
2023-03-06T13:32:52.821Z,100507.84
2023-03-06T13:35:34.278Z,100525.56
2023-03-06T13:38:01.518Z,100526.72
2023-03-06T13:40:35.723Z,100533.00
2023-03-06T13:43:07.917Z,100527.56
2023-03-06T13:45:34.521Z,100531.00
2023-03-06T13:48:37.564Z,100514.00
2023-03-06T13:50:55.723Z,100510.72
2023-03-06T13:53:50.079Z,100514.09
2023-03-06T13:56:28.802Z,100508.59
2023-03-06T13:59:25.918Z,100501.53
2023-03-06T14:02:34.684Z,100497.16
2023-03-06T14:05:03.884Z,100493.28
2023-03-06T14:07:35.755Z,100493.84
2023-03-06T14:10:15.603Z,100481.97
2023-03-06T14:12:58.993Z,100473.78
2023-03-06T14:15:53.889Z,100459.19
2023-03-06T14:18:27.913Z,100475.47
2023-03-06T14:21:07.526Z,100472.06
2023-03-06T14:23:45.244Z,100415.41
2023-03-06T14:26:17.594Z,100472.97
2023-03-06T14:29:01.956Z,100469.84
2023-03-06T14:31:32.132Z,100446.44
2023-03-06T14:34:05.077Z,100466.63
2023-03-06T14:36:45.391Z,100465.34
2023-03-06T14:39:26.261Z,100451.31
2023-03-06T14:42:08.478Z,100456.22
2023-03-06T14:44:35.546Z,100425.66
2023-03-06T14:47:25.011Z,100456.00
2023-03-06T14:50:30.255Z,100448.72
2023-03-06T14:53:16.662Z,100445.72
2023-03-06T14:56:02.107Z,100443.19
2023-03-06T14:58:36.855Z,100449.19
2023-03-06T15:01:09.688Z,100434.47
2023-03-06T15:03:51.104Z,100451.78
2023-03-06T15:06:25.116Z,100452.06
2023-03-06T15:09:02.599Z,100423.91
2023-03-06T15:12:08.445Z,100447.94
2023-03-06T15:14:43.342Z,100401.84
2023-03-06T15:17:19.350Z,100433.88
2023-03-06T15:19:50.885Z,100397.31
2023-03-06T15:22:33.034Z,100421.19
2023-03-06T15:25:22.308Z,100419.59
2023-03-06T15:27:59.616Z,100416.47
2023-03-06T15:30:33.113Z,100422.19
2023-03-06T15:33:32.118Z,100413.19
2023-03-06T15:36:03.768Z,100394.88
2023-03-06T15:38:42.025Z,100400.47
2023-03-06T15:41:31.848Z,100397.59
2023-03-06T15:44:00.307Z,100393.75
2023-03-06T15:46:27.523Z,100383.88
2023-03-06T15:48:56.897Z,100382.88
2023-03-06T15:51:25.826Z,100385.75
2023-03-06T15:53:54.958Z,100341.44
2023-03-06T15:56:28.979Z,100375.44
2023-03-06T15:59:01.895Z,100362.31
2023-03-06T16:01:28.674Z,100339.44
2023-03-06T16:03:58.245Z,100366.44
2023-03-06T16:06:25.633Z,100364.44
2023-03-06T16:08:53.076Z,100359.44
2023-03-06T16:11:41.884Z,100360.56
2023-03-06T16:14:18.956Z,100347.16
2023-03-06T16:16:45.757Z,100351.03
2023-03-06T16:19:25.946Z,100322.16
2023-03-06T16:21:55.103Z,100353.88
2023-03-06T16:24:26.114Z,100343.44
2023-03-06T16:26:54.965Z,100346.88
2023-03-06T16:29:24.225Z,100303.28
2023-03-06T16:31:51.212Z,100338.88
2023-03-06T16:34:19.845Z,100341.00
2023-03-06T16:36:48.611Z,100336.44
2023-03-06T16:39:20.004Z,100265.56
2023-03-06T16:41:47.185Z,100334.59
2023-03-06T16:44:14.040Z,100319.16
2023-03-06T16:46:45.276Z,100322.00
2023-03-06T16:49:25.121Z,100336.84
2023-03-06T16:51:53.137Z,100332.97
2023-03-06T16:54:26.089Z,100326.09
2023-03-06T16:56:52.687Z,100330.81
2023-03-06T16:59:19.656Z,100332.81
2023-03-06T17:01:46.360Z,100335.94
2023-03-06T17:04:15.498Z,100312.50
2023-03-06T17:06:44.386Z,100320.50
2023-03-06T17:09:11.220Z,100316.63
2023-03-06T17:11:43.090Z,100332.88
2023-03-06T17:14:11.780Z,100332.00
2023-03-06T17:16:40.397Z,100316.84
2023-03-06T17:19:07.476Z,100309.81
2023-03-06T17:21:35.440Z,100328.78
2023-03-06T17:24:04.791Z,100279.38
2023-03-06T17:26:31.418Z,100321.38
2023-03-06T17:28:58.200Z,100312.06
2023-03-06T17:31:27.096Z,100300.06
2023-03-06T17:34:00.434Z,100315.28
2023-03-06T17:36:28.517Z,100314.84
2023-03-06T17:38:56.727Z,100319.53
2023-03-06T17:41:24.683Z,100202.84
2023-03-06T17:43:52.072Z,100314.31
2023-03-06T17:46:23.333Z,100311.56
2023-03-06T17:48:52.136Z,100311.81
2023-03-06T17:51:18.708Z,100307.81
2023-03-06T17:53:47.466Z,100303.38
2023-03-06T17:56:17.579Z,100307.59
2023-03-06T17:58:44.406Z,100296.63
2023-03-06T18:01:15.802Z,100297.50
2023-03-06T18:03:47.794Z,100290.06
2023-03-06T18:06:15.787Z,100284.78
2023-03-06T18:08:45.983Z,100301.00
2023-03-06T18:11:13.668Z,100298.41
2023-03-06T18:13:42.887Z,100295.84
2023-03-06T18:16:12.188Z,100254.41
2023-03-06T18:18:44.105Z,100286.13
2023-03-06T18:21:13.434Z,100291.69
2023-03-06T18:23:43.758Z,100290.81
2023-03-06T18:26:19.545Z,100277.53
2023-03-06T18:28:48.872Z,100280.50
2023-03-06T18:31:19.904Z,100275.38
2023-03-06T18:33:50.794Z,100269.34
2023-03-06T18:36:24.626Z,100264.34
2023-03-06T18:38:51.283Z,100254.97
2023-03-06T18:41:19.822Z,100250.69
2023-03-06T18:43:55.006Z,100244.69
2023-03-06T18:46:25.358Z,100233.28
2023-03-06T18:48:52.144Z,100227.84
2023-03-06T18:51:20.186Z,100225.88
2023-03-06T18:53:49.360Z,100228.69
2023-03-06T18:56:19.141Z,100217.28
2023-03-06T18:58:50.255Z,100226.66
2023-03-06T19:01:17.791Z,100181.81
2023-03-06T19:03:44.547Z,100204.69
2023-03-06T19:06:16.853Z,100211.69
2023-03-06T19:08:43.899Z,100207.13
2023-03-06T19:11:14.377Z,100197.31
2023-03-06T19:13:41.150Z,100185.16
2023-03-06T19:16:08.248Z,100109.31
2023-03-06T19:18:35.358Z,100150.59
2023-03-06T19:21:16.263Z,100176.13
2023-03-06T19:23:43.184Z,100161.59
2023-03-06T19:26:10.425Z,100191.91
2023-03-06T19:28:38.949Z,100185.75
2023-03-06T19:31:13.048Z,100188.88
2023-03-06T19:33:40.731Z,100178.44
2023-03-06T19:36:09.906Z,100180.28
2023-03-06T19:38:37.173Z,100164.13
2023-03-06T19:41:04.404Z,100178.97
2023-03-06T19:43:31.277Z,100172.72
2023-03-06T19:45:58.336Z,100096.28
2023-03-06T19:48:24.937Z,100165.84
2023-03-06T19:50:51.568Z,100133.00
2023-03-06T19:53:18.173Z,100118.16
2023-03-06T19:55:44.719Z,100127.00
2023-03-06T19:58:11.462Z,100149.16
2023-03-06T20:00:38.235Z,100127.34
2023-03-06T20:03:05.034Z,100139.31
2023-03-06T20:05:31.717Z,100129.66
2023-03-06T20:07:58.225Z,100122.91
2023-03-06T20:10:24.811Z,100107.34
2023-03-06T20:12:53.593Z,100101.53
2023-03-06T20:15:22.226Z,100118.81
2023-03-06T20:17:51.278Z,100101.00
2023-03-06T20:20:18.115Z,100107.88
2023-03-06T20:22:44.938Z,100106.16
2023-03-06T20:25:11.584Z,100100.03
2023-03-06T20:27:38.369Z,100094.63
2023-03-06T20:30:07.817Z,100086.50
2023-03-06T20:32:34.842Z,100078.41
2023-03-06T20:35:01.593Z,100064.06
2023-03-06T20:37:28.380Z,100078.66
2023-03-06T20:39:55.050Z,100068.81
2023-03-06T20:42:21.726Z,100038.75
2023-03-06T20:44:50.571Z,100064.13
2023-03-06T20:47:17.208Z,100036.19
2023-03-06T20:49:43.820Z,100034.28
2023-03-06T20:52:10.498Z,100054.31
2023-03-06T20:54:37.372Z,100069.66
2023-03-06T20:57:06.249Z,100060.13
2023-03-06T20:59:35.152Z,100044.56
2023-03-06T21:02:01.961Z,100059.28
2023-03-06T21:04:28.765Z,100026.31
2023-03-06T21:06:57.999Z,100034.59
2023-03-06T21:09:27.069Z,100044.63
2023-03-06T21:11:55.901Z,100029.31
2023-03-06T21:14:22.620Z,100035.66
2023-03-06T21:16:49.199Z,100041.06
2023-03-06T21:19:15.848Z,100023.84
2023-03-06T21:21:50.384Z,100016.78
2023-03-06T21:24:21.212Z,100013.00
2023-03-06T21:26:48.267Z,100022.44
2023-03-06T21:29:14.992Z,100022.44
2023-03-06T21:31:42.189Z,100023.28
2023-03-06T21:34:10.609Z,99997.09
2023-03-06T21:36:37.696Z,100008.94
2023-03-06T21:39:06.335Z,100019.75
2023-03-06T21:41:33.297Z,100015.06
2023-03-06T21:44:02.562Z,100002.81
2023-03-06T21:46:31.886Z,100011.38
2023-03-06T21:48:58.676Z,100003.53
2023-03-06T21:51:27.129Z,99995.53
2023-03-06T21:53:57.477Z,99999.84
2023-03-06T21:56:28.453Z,99992.31
2023-03-06T21:58:58.297Z,99987.16
2023-03-06T22:01:27.515Z,99974.63
2023-03-06T22:03:54.860Z,99978.78
2023-03-06T22:06:26.670Z,99975.06
2023-03-06T22:08:55.620Z,99970.53
2023-03-06T22:11:24.209Z,99970.53
2023-03-06T22:13:53.211Z,99972.22
2023-03-06T22:16:20.963Z,99952.84
2023-03-06T22:18:49.651Z,99953.72
2023-03-06T22:21:23.264Z,99964.09
2023-03-06T22:23:57.267Z,99923.47
2023-03-06T22:26:24.949Z,99951.59
2023-03-06T22:28:51.565Z,99859.63
2023-03-06T22:31:28.674Z,99954.44
2023-03-06T22:33:57.482Z,99884.56
2023-03-06T22:36:24.467Z,99928.03
2023-03-06T22:38:56.154Z,99959.56
2023-03-06T22:41:26.867Z,99958.56
2023-03-06T22:44:01.590Z,99964.84
2023-03-06T22:46:28.795Z,99939.91
2023-03-06T22:49:00.119Z,99958.16
2023-03-06T22:51:28.210Z,99952.03
2023-03-06T22:53:54.845Z,99892.03
2023-03-06T22:56:22.468Z,99919.81
2023-03-06T22:58:49.227Z,99962.16
2023-03-06T23:01:18.880Z,99954.88
2023-03-06T23:03:48.070Z,99958.56
2023-03-06T23:06:21.409Z,99960.41
2023-03-06T23:08:54.579Z,99962.28
2023-03-06T23:11:22.438Z,99957.84
2023-03-06T23:13:55.524Z,99938.31
2023-03-06T23:16:22.164Z,99921.06
2023-03-06T23:18:51.219Z,99957.84
2023-03-06T23:21:19.575Z,99955.16
2023-03-06T23:23:53.118Z,99957.84
2023-03-06T23:26:22.641Z,99949.75
2023-03-06T23:28:49.599Z,99956.00
2023-03-06T23:31:19.319Z,99939.75
2023-03-06T23:33:45.997Z,99939.47
2023-03-06T23:36:14.629Z,99934.66
2023-03-06T23:38:44.412Z,99879.47
2023-03-06T23:41:14.420Z,99931.06
2023-03-06T23:43:41.198Z,99931.34
2023-03-06T23:46:08.095Z,99905.84
2023-03-06T23:48:39.001Z,99913.81
2023-03-06T23:51:15.371Z,99938.84
2023-03-06T23:53:42.755Z,99932.31
2023-03-06T23:56:12.639Z,99929.25
2023-03-06T23:58:39.354Z,99897.75
